createdAt,value
2023-05-08T00:02:06.232Z,5.50
2023-05-08T00:04:34.628Z,5.90
2023-05-08T00:07:04.135Z,6.28
2023-05-08T00:09:32.501Z,6.10
2023-05-08T00:12:00.577Z,5.95
2023-05-08T00:14:29.064Z,6.22
2023-05-08T00:16:57.432Z,6.05
2023-05-08T00:19:25.900Z,6.43
2023-05-08T00:21:53.935Z,6.05
2023-05-08T00:24:23.727Z,6.00
2023-05-08T00:26:52.071Z,6.25
2023-05-08T00:29:20.060Z,6.20
2023-05-08T00:31:48.012Z,6.78
2023-05-08T00:34:16.702Z,6.97
2023-05-08T00:36:46.064Z,6.60
2023-05-08T00:39:14.291Z,6.90
2023-05-08T00:41:44.122Z,7.05
2023-05-08T00:44:12.911Z,6.85
2023-05-08T00:46:42.661Z,7.20
2023-05-08T00:49:14.857Z,7.30
2023-05-08T00:51:44.237Z,7.40
2023-05-08T00:54:12.772Z,7.55
2023-05-08T00:56:42.140Z,7.38
2023-05-08T00:59:15.317Z,6.75
2023-05-08T01:01:45.746Z,6.80
2023-05-08T01:04:13.756Z,7.43
2023-05-08T01:06:41.833Z,7.18
2023-05-08T01:09:10.313Z,7.65
2023-05-08T01:11:47.023Z,7.10
2023-05-08T01:14:23.022Z,7.55
2023-05-08T01:17:10.848Z,7.70
2023-05-08T01:20:06.340Z,7.05
2023-05-08T01:23:01.835Z,7.07
2023-05-08T01:26:12.485Z,7.55
2023-05-08T01:29:05.342Z,7.22
2023-05-08T01:31:48.653Z,7.43
2023-05-08T01:34:25.065Z,8.02
2023-05-08T01:36:59.433Z,8.10
2023-05-08T01:39:36.205Z,8.05
2023-05-08T01:42:08.908Z,7.97
2023-05-08T01:44:43.906Z,8.75
2023-05-08T01:47:13.181Z,7.72
2023-05-08T01:49:47.878Z,7.65
2023-05-08T01:52:21.997Z,8.40
2023-05-08T01:55:00.726Z,8.15
2023-05-08T01:57:31.151Z,7.40
2023-05-08T02:00:04.353Z,7.47
2023-05-08T02:02:38.579Z,7.80
2023-05-08T02:05:12.512Z,7.63
2023-05-08T02:07:42.247Z,7.80
2023-05-08T02:10:13.066Z,7.53
2023-05-08T02:12:42.458Z,7.80
2023-05-08T02:15:15.486Z,7.88
2023-05-08T02:17:46.141Z,7.63
2023-05-08T02:20:17.857Z,8.15
2023-05-08T02:22:49.311Z,7.40
2023-05-08T02:25:20.584Z,7.05
2023-05-08T02:27:50.569Z,7.57
2023-05-08T02:30:20.592Z,7.40
2023-05-08T02:32:50.879Z,7.70
2023-05-08T02:35:22.012Z,7.57
2023-05-08T02:37:54.804Z,7.25
2023-05-08T02:40:26.247Z,7.43
2023-05-08T02:42:54.860Z,6.93
2023-05-08T02:45:26.915Z,7.55
2023-05-08T02:48:06.855Z,6.90
2023-05-08T02:50:45.263Z,7.13
2023-05-08T02:53:20.029Z,7.57
2023-05-08T02:55:51.704Z,7.13
2023-05-08T02:58:25.637Z,7.45
2023-05-08T03:00:59.362Z,7.15
2023-05-08T03:03:34.605Z,7.38
2023-05-08T03:06:08.315Z,6.88
2023-05-08T03:08:38.588Z,7.22
2023-05-08T03:11:14.969Z,7.28
2023-05-08T03:13:46.148Z,7.18
2023-05-08T03:16:19.654Z,6.90
2023-05-08T03:18:53.917Z,7.28
2023-05-08T03:21:28.220Z,7.47
2023-05-08T03:23:59.280Z,7.07
2023-05-08T03:26:27.655Z,7.60
2023-05-08T03:28:57.452Z,7.60
2023-05-08T03:31:33.506Z,7.85
2023-05-08T03:34:03.435Z,7.50
2023-05-08T03:39:02.557Z,7.60
2023-05-08T03:41:30.878Z,7.57
2023-05-08T03:44:00.162Z,7.78
2023-05-08T03:46:28.637Z,8.05
2023-05-08T03:49:00.292Z,8.30
2023-05-08T03:51:29.480Z,8.75
2023-05-08T03:53:59.586Z,8.43
2023-05-08T03:56:29.802Z,9.18
2023-05-08T03:59:10.896Z,8.13
2023-05-08T04:01:42.121Z,7.65
2023-05-08T04:04:19.010Z,7.57
2023-05-08T04:06:54.154Z,7.93
2023-05-08T04:09:38.373Z,7.95
2023-05-08T04:12:15.557Z,8.65
2023-05-08T04:14:46.756Z,7.97
2023-05-08T04:17:19.278Z,8.90
2023-05-08T04:19:57.109Z,8.98
2023-05-08T04:22:27.877Z,8.88
2023-05-08T04:27:28.983Z,8.13
2023-05-08T04:29:57.978Z,8.23
2023-05-08T04:32:28.702Z,8.23
2023-05-08T04:34:57.152Z,9.02
2023-05-08T04:37:26.711Z,9.02
2023-05-08T04:39:59.052Z,9.30
2023-05-08T04:42:27.656Z,9.93
2023-05-08T04:44:59.661Z,10.63
2023-05-08T04:47:27.835Z,9.95
2023-05-08T04:49:55.867Z,10.95
2023-05-08T04:52:24.794Z,10.52
2023-05-08T04:54:52.692Z,11.25
2023-05-08T04:57:22.605Z,11.25
2023-05-08T04:59:52.748Z,11.23
2023-05-08T05:02:21.206Z,10.55
2023-05-08T05:04:51.194Z,11.73
2023-05-08T05:07:19.737Z,11.40
2023-05-08T05:09:48.337Z,11.60
2023-05-08T05:12:16.498Z,10.88
2023-05-08T05:14:48.543Z,11.07
2023-05-08T05:17:16.643Z,11.57
2023-05-08T05:19:44.596Z,11.65
2023-05-08T05:22:13.448Z,11.48
2023-05-08T05:24:42.215Z,11.30
2023-05-08T05:27:10.273Z,10.98
2023-05-08T05:29:39.513Z,11.50
2023-05-08T05:32:10.252Z,11.90
2023-05-08T05:34:39.603Z,10.95
2023-05-08T05:37:07.905Z,11.35
2023-05-08T05:39:37.855Z,11.75
2023-05-08T05:42:07.595Z,11.25
2023-05-08T05:44:35.756Z,10.73
2023-05-08T05:47:05.759Z,10.45
2023-05-08T05:49:36.371Z,10.90
2023-05-08T05:52:05.211Z,10.93
2023-05-08T05:54:33.596Z,10.82
2023-05-08T05:57:04.938Z,11.68
2023-05-08T05:59:33.007Z,11.90
2023-05-08T06:02:01.140Z,11.38
2023-05-08T06:04:29.781Z,11.25
2023-05-08T06:06:59.162Z,11.55
2023-05-08T06:09:27.555Z,11.60
2023-05-08T06:11:55.981Z,10.90
2023-05-08T06:14:24.554Z,10.43
2023-05-08T06:16:52.591Z,10.68
2023-05-08T06:19:21.574Z,11.68
2023-05-08T06:21:51.819Z,10.70
2023-05-08T06:24:23.095Z,11.73
2023-05-08T06:26:51.073Z,11.18
2023-05-08T06:29:19.461Z,11.90
2023-05-08T06:31:48.274Z,11.65
2023-05-08T06:34:16.220Z,10.07
2023-05-08T06:36:44.146Z,10.70
2023-05-08T06:39:12.961Z,10.90
2023-05-08T06:41:42.233Z,10.55
2023-05-08T06:44:10.803Z,10.10
2023-05-08T06:46:39.278Z,10.30
2023-05-08T06:49:07.307Z,10.05
2023-05-08T06:51:35.599Z,9.77
2023-05-08T06:54:08.350Z,10.23
2023-05-08T06:56:38.916Z,9.55
2023-05-08T06:59:09.477Z,10.63
2023-05-08T07:01:38.490Z,10.60
2023-05-08T07:04:06.640Z,10.37
2023-05-08T07:06:36.101Z,10.63
2023-05-08T07:09:04.482Z,10.88
2023-05-08T07:11:33.074Z,10.77
2023-05-08T07:14:01.733Z,9.98
2023-05-08T07:16:31.116Z,10.95
2023-05-08T07:21:28.359Z,10.50
2023-05-08T07:23:56.368Z,10.07
2023-05-08T07:26:24.317Z,10.15
2023-05-08T07:28:54.641Z,10.73
2023-05-08T07:31:22.910Z,10.48
2023-05-08T07:33:52.929Z,10.53
2023-05-08T07:36:21.775Z,10.00
2023-05-08T07:38:49.744Z,10.52
2023-05-08T07:41:18.157Z,10.85
2023-05-08T07:43:47.140Z,10.00
2023-05-08T07:46:18.804Z,10.90
2023-05-08T07:48:47.690Z,10.93
2023-05-08T07:51:17.048Z,10.20
2023-05-08T07:53:45.470Z,11.07
2023-05-08T07:56:13.880Z,11.07
2023-05-08T07:58:42.700Z,9.82
2023-05-08T08:01:10.643Z,10.73
2023-05-08T08:03:39.623Z,9.80
2023-05-08T08:06:07.835Z,10.27
2023-05-08T08:08:37.639Z,9.63
2023-05-08T08:11:06.353Z,9.55
2023-05-08T08:13:34.580Z,10.05
2023-05-08T08:16:04.232Z,9.25
2023-05-08T08:18:36.095Z,9.02
2023-05-08T08:21:06.766Z,9.45
2023-05-08T08:23:35.771Z,9.38
2023-05-08T08:26:05.611Z,8.48
2023-05-08T08:28:33.832Z,8.43
2023-05-08T08:31:03.602Z,8.23
2023-05-08T08:33:31.958Z,7.28
2023-05-08T08:35:59.930Z,8.25
2023-05-08T08:38:28.888Z,7.45
2023-05-08T08:40:56.839Z,8.02
2023-05-08T08:43:26.834Z,7.28
2023-05-08T08:45:55.369Z,7.78
2023-05-08T08:48:27.429Z,7.75
2023-05-08T08:51:04.289Z,8.45
2023-05-08T08:53:36.271Z,8.25
2023-05-08T08:56:09.361Z,9.00
2023-05-08T08:58:46.819Z,8.63
2023-05-08T09:01:18.354Z,8.50
2023-05-08T09:03:48.327Z,8.77
2023-05-08T09:06:19.848Z,9.10
2023-05-08T09:08:48.615Z,8.98
2023-05-08T09:11:17.092Z,9.43
2023-05-08T09:13:46.939Z,8.57
2023-05-08T09:16:15.004Z,8.38
2023-05-08T09:18:43.039Z,8.73
2023-05-08T09:21:12.057Z,8.20
2023-05-08T09:23:56.195Z,9.73
2023-05-08T09:26:33.774Z,9.57
2023-05-08T09:29:13.895Z,8.57
2023-05-08T09:31:45.016Z,9.45
2023-05-08T09:34:24.728Z,8.50
2023-05-08T09:36:53.644Z,8.10
2023-05-08T09:39:26.505Z,9.23
2023-05-08T09:42:00.190Z,8.68
2023-05-08T09:44:29.765Z,8.93
2023-05-08T09:47:12.722Z,9.07
2023-05-08T09:49:40.947Z,8.73
2023-05-08T09:52:09.544Z,9.25
2023-05-08T09:54:37.796Z,8.77
2023-05-08T09:57:14.088Z,7.95
2023-05-08T09:59:44.414Z,8.52
2023-05-08T10:04:40.935Z,8.55
2023-05-08T10:07:09.378Z,9.07
2023-05-08T10:09:49.707Z,9.48
2023-05-08T10:12:19.240Z,9.50
2023-05-08T10:14:48.618Z,8.52
2023-05-08T10:17:22.940Z,8.93
2023-05-08T10:19:53.788Z,8.45
2023-05-08T10:22:26.425Z,9.15
2023-05-08T10:24:58.561Z,9.02
2023-05-08T10:27:36.324Z,9.40
2023-05-08T10:30:06.600Z,8.90
2023-05-08T10:32:41.963Z,8.55
2023-05-08T10:35:12.130Z,9.23
2023-05-08T10:37:42.717Z,10.00
2023-05-08T10:40:12.159Z,9.48
2023-05-08T10:45:11.712Z,9.90
2023-05-08T10:47:55.302Z,9.38
2023-05-08T10:50:36.459Z,9.00
2023-05-08T10:53:08.323Z,8.85
2023-05-08T10:55:39.024Z,9.60
2023-05-08T10:58:12.099Z,9.13
2023-05-08T11:01:14.465Z,9.75
2023-05-08T11:03:45.538Z,9.88
2023-05-08T11:06:15.375Z,9.10
2023-05-08T11:08:54.938Z,9.23
2023-05-08T11:14:01.336Z,9.07
2023-05-08T11:17:08.497Z,8.60
2023-05-08T11:19:39.265Z,9.40
2023-05-08T11:22:24.531Z,10.10
2023-05-08T11:24:59.185Z,9.07
2023-05-08T11:28:05.573Z,9.15
2023-05-08T11:30:40.053Z,8.27
2023-05-08T11:33:31.815Z,8.55
2023-05-08T11:36:13.086Z,7.88
2023-05-08T11:38:41.407Z,9.20
2023-05-08T11:41:10.856Z,8.95
2023-05-08T11:44:15.205Z,8.13
2023-05-08T11:46:47.733Z,7.80
2023-05-08T11:49:19.643Z,8.25
2023-05-08T11:51:55.160Z,9.15
2023-05-08T11:54:24.690Z,9.18
2023-05-08T11:56:55.192Z,8.57
2023-05-08T11:59:23.584Z,9.85
2023-05-08T12:02:06.882Z,9.20
2023-05-08T12:04:44.609Z,9.05
2023-05-08T12:07:16.018Z,8.23
2023-05-08T12:09:44.165Z,8.70
2023-05-08T12:12:12.603Z,8.80
2023-05-08T12:14:40.546Z,8.35
2023-05-08T12:17:09.031Z,7.90
2023-05-08T12:19:37.329Z,8.80
2023-05-08T12:22:05.249Z,8.15
2023-05-08T12:24:35.728Z,8.18
2023-05-08T12:27:04.670Z,8.65
2023-05-08T12:29:37.664Z,8.57
2023-05-08T12:32:06.030Z,8.63
2023-05-08T12:34:34.079Z,8.20
2023-05-08T12:37:04.523Z,7.50
2023-05-08T12:39:38.492Z,7.47
2023-05-08T12:42:07.454Z,8.10
2023-05-08T12:44:35.410Z,8.65
2023-05-08T12:47:07.120Z,9.18
2023-05-08T12:49:35.529Z,8.00
2023-05-08T12:52:08.028Z,7.88
2023-05-08T12:54:41.543Z,7.47
2023-05-08T12:57:13.855Z,6.88
2023-05-08T12:59:43.206Z,7.45
2023-05-08T13:02:16.701Z,5.80
2023-05-08T13:04:45.327Z,6.55
2023-05-08T13:07:13.474Z,5.78
2023-05-08T13:09:57.590Z,6.28
2023-05-08T13:12:25.700Z,6.75
2023-05-08T13:14:54.071Z,6.38
2023-05-08T13:17:22.118Z,6.00
2023-05-08T13:19:50.086Z,5.43
2023-05-08T13:22:19.100Z,5.95
2023-05-08T13:24:48.395Z,5.63
2023-05-08T13:27:16.777Z,5.85
2023-05-08T13:29:45.222Z,5.82
2023-05-08T13:32:13.328Z,6.20
2023-05-08T13:34:47.619Z,6.18
2023-05-08T13:37:19.807Z,6.40
2023-05-08T13:39:49.145Z,6.28
2023-05-08T13:42:17.508Z,6.30
2023-05-08T13:44:45.509Z,6.80
2023-05-08T13:47:13.481Z,6.20
2023-05-08T13:49:42.351Z,6.05
2023-05-08T13:52:10.701Z,5.85
2023-05-08T13:54:39.131Z,5.60
2023-05-08T13:57:09.086Z,5.07
2023-05-08T13:59:37.060Z,5.68
2023-05-08T14:02:05.577Z,5.53
2023-05-08T14:04:33.900Z,5.23
2023-05-08T14:07:01.941Z,5.47
2023-05-08T14:09:30.901Z,5.93
2023-05-08T14:11:58.938Z,5.40
2023-05-08T14:14:28.756Z,6.00
2023-05-08T14:16:57.788Z,5.32
2023-05-08T14:19:25.735Z,5.25
2023-05-08T14:21:54.205Z,4.97
2023-05-08T14:24:22.672Z,4.90
2023-05-08T14:26:50.678Z,5.03
2023-05-08T14:29:19.379Z,5.43
2023-05-08T14:31:48.725Z,5.43
2023-05-08T14:34:17.296Z,5.10
2023-05-08T14:36:45.708Z,5.38
2023-05-08T14:39:13.684Z,5.00
2023-05-08T14:41:48.127Z,4.68
2023-05-08T14:44:28.393Z,5.07
2023-05-08T14:46:58.138Z,6.35
2023-05-08T14:49:36.616Z,6.63
2023-05-08T14:52:07.052Z,6.47
2023-05-08T14:54:35.328Z,6.85
2023-05-08T14:57:03.971Z,7.05
2023-05-08T14:59:32.448Z,6.82
2023-05-08T15:02:02.085Z,7.50
2023-05-08T15:04:31.274Z,6.82
2023-05-08T15:06:59.653Z,6.65
2023-05-08T15:09:28.030Z,7.15
2023-05-08T15:11:56.870Z,6.72
2023-05-08T15:14:25.300Z,6.85
2023-05-08T15:16:53.676Z,6.97
2023-05-08T15:19:23.477Z,6.85
2023-05-08T15:21:51.488Z,6.60
2023-05-08T15:24:19.396Z,6.43
2023-05-08T15:26:48.230Z,6.25
2023-05-08T15:29:16.157Z,5.63
2023-05-08T15:31:44.569Z,6.18
2023-05-08T15:34:12.966Z,6.13
2023-05-08T15:36:42.276Z,6.82
2023-05-08T15:41:39.852Z,6.93
2023-05-08T15:44:07.975Z,7.13
2023-05-08T15:46:35.938Z,7.03
2023-05-08T15:49:05.792Z,8.20
2023-05-08T15:51:33.780Z,7.65
2023-05-08T15:54:04.002Z,6.70
2023-05-08T15:56:32.687Z,8.80
2023-05-08T15:59:00.621Z,7.50
2023-05-08T16:01:29.628Z,8.23
2023-05-08T16:03:57.714Z,7.95
2023-05-08T16:06:26.250Z,7.40
2023-05-08T16:08:54.652Z,7.30
2023-05-08T16:11:24.038Z,6.85
2023-05-08T16:13:53.487Z,6.70
2023-05-08T16:16:22.529Z,6.95
2023-05-08T16:18:50.457Z,6.50
2023-05-08T16:21:18.838Z,7.15
2023-05-08T16:23:47.445Z,8.40
2023-05-08T16:26:16.578Z,9.15
2023-05-08T16:28:45.869Z,8.55
2023-05-08T16:33:43.471Z,10.00
2023-05-08T16:36:11.738Z,9.52
2023-05-08T16:38:39.712Z,9.50
2023-05-08T16:41:09.998Z,7.85
2023-05-08T16:43:38.091Z,7.57
2023-05-08T16:46:08.532Z,6.72
2023-05-08T16:48:37.003Z,7.40
2023-05-08T16:51:05.705Z,6.35
2023-05-08T16:53:33.715Z,6.80
2023-05-08T16:56:01.661Z,6.63
2023-05-08T16:58:29.627Z,6.28
2023-05-08T17:00:57.588Z,6.10
2023-05-08T17:03:27.532Z,6.10
2023-05-08T17:05:55.571Z,5.60
2023-05-08T17:08:23.547Z,5.10
2023-05-08T17:10:54.216Z,5.60
2023-05-08T17:13:22.193Z,5.13
2023-05-08T17:15:50.612Z,6.20
2023-05-08T17:18:19.067Z,6.25
2023-05-08T17:20:48.339Z,6.25
2023-05-08T17:25:44.522Z,5.57
2023-05-08T17:28:12.694Z,6.07
2023-05-08T17:30:40.859Z,5.60
2023-05-08T17:33:09.177Z,5.43
2023-05-08T17:35:37.174Z,5.22
2023-05-08T17:38:06.661Z,4.80
2023-05-08T17:40:34.630Z,4.93
2023-05-08T17:43:06.467Z,5.35
2023-05-08T17:45:34.745Z,4.95
2023-05-08T17:48:03.125Z,4.40
2023-05-08T17:50:32.321Z,3.80
2023-05-08T17:53:00.289Z,3.90
2023-05-08T17:55:31.704Z,3.20
2023-05-08T17:58:00.233Z,2.88
2023-05-08T18:00:28.123Z,2.83
2023-05-08T18:02:58.063Z,2.63
2023-05-08T18:05:29.427Z,2.47
2023-05-08T18:07:57.391Z,2.65
2023-05-08T18:10:25.816Z,2.22
2023-05-08T18:12:55.111Z,2.55
2023-05-08T18:17:53.545Z,2.50
2023-05-08T18:20:22.088Z,2.90
2023-05-08T18:22:51.057Z,2.63
2023-05-08T18:25:19.801Z,2.80
2023-05-08T18:27:50.035Z,2.38
2023-05-08T18:30:20.469Z,2.40
2023-05-08T18:32:48.458Z,3.05
2023-05-08T18:35:18.377Z,2.80
2023-05-08T18:37:46.360Z,2.70
2023-05-08T18:40:15.765Z,2.70
2023-05-08T18:42:44.277Z,2.63
2023-05-08T18:45:13.765Z,2.95
2023-05-08T18:47:43.130Z,2.93
2023-05-08T18:50:12.424Z,3.60
2023-05-08T18:52:40.809Z,3.33
2023-05-08T18:55:10.775Z,3.67
2023-05-08T18:57:39.232Z,4.85
2023-05-08T19:00:08.584Z,4.05
2023-05-08T19:02:37.151Z,4.40
2023-05-08T19:05:08.143Z,4.53
2023-05-08T19:07:36.318Z,5.20
2023-05-08T19:10:05.855Z,5.00
2023-05-08T19:12:33.813Z,4.75
2023-05-08T19:15:02.716Z,5.70
2023-05-08T19:17:30.696Z,5.85
2023-05-08T19:19:59.661Z,5.78
2023-05-08T19:22:28.912Z,5.80
2023-05-08T19:24:57.289Z,5.55
2023-05-08T19:27:25.698Z,5.53
2023-05-08T19:29:54.585Z,5.50
2023-05-08T19:32:22.917Z,5.75
2023-05-08T19:34:50.850Z,5.60
2023-05-08T19:37:19.309Z,5.63
2023-05-08T19:39:48.620Z,6.05
2023-05-08T19:42:16.603Z,5.65
2023-05-08T19:44:45.052Z,6.53
2023-05-08T19:47:13.700Z,5.88
2023-05-08T19:49:41.768Z,6.30
2023-05-08T19:52:09.961Z,5.78
2023-05-08T19:54:38.032Z,6.00
2023-05-08T19:57:08.338Z,5.95
2023-05-08T19:59:36.358Z,5.93
2023-05-08T20:02:05.323Z,5.70
2023-05-08T20:04:42.168Z,5.78
2023-05-08T20:07:20.543Z,5.90
2023-05-08T20:09:48.555Z,5.63
2023-05-08T20:12:17.892Z,5.72
2023-05-08T20:14:46.141Z,6.20
2023-05-08T20:17:14.911Z,5.40
2023-05-08T20:19:42.910Z,5.50
2023-05-08T20:22:12.505Z,5.45
2023-05-08T20:24:40.930Z,5.40
2023-05-08T20:27:08.910Z,5.53
2023-05-08T20:29:39.255Z,5.10
2023-05-08T20:34:36.794Z,5.30
2023-05-08T20:37:06.123Z,6.03
2023-05-08T20:39:34.181Z,5.35
2023-05-08T20:42:03.156Z,5.53
2023-05-08T20:44:31.904Z,5.85
2023-05-08T20:47:01.982Z,5.82
2023-05-08T20:49:30.056Z,6.03
2023-05-08T20:51:58.175Z,5.22
2023-05-08T20:54:26.197Z,5.95
2023-05-08T20:56:54.590Z,5.22
2023-05-08T20:59:23.559Z,4.90
2023-05-08T21:01:51.530Z,4.37
2023-05-08T21:04:22.159Z,3.85
2023-05-08T21:06:52.000Z,4.00
2023-05-08T21:09:20.888Z,3.58
2023-05-08T21:11:49.029Z,3.97
2023-05-08T21:14:17.105Z,4.78
2023-05-08T21:16:45.351Z,4.03
2023-05-08T21:19:17.168Z,3.85
2023-05-08T21:21:47.847Z,4.50
2023-05-08T21:24:16.508Z,4.13
2023-05-08T21:26:44.691Z,4.10
2023-05-08T21:29:13.607Z,4.28
2023-05-08T21:31:43.172Z,4.22
2023-05-08T21:34:12.390Z,4.10
2023-05-08T21:36:40.811Z,3.97
2023-05-08T21:39:10.180Z,4.38
2023-05-08T21:41:39.171Z,4.25
2023-05-08T21:44:07.137Z,4.45
2023-05-08T21:46:35.768Z,4.10
2023-05-08T21:49:04.741Z,4.40
2023-05-08T21:51:32.948Z,4.80
2023-05-08T21:54:01.461Z,4.30
2023-05-08T21:56:31.591Z,4.15
2023-05-08T21:58:59.538Z,4.38
2023-05-08T22:01:28.475Z,4.40
2023-05-08T22:03:56.616Z,4.45
2023-05-08T22:06:25.647Z,4.22
2023-05-08T22:08:53.791Z,4.43
2023-05-08T22:11:22.473Z,4.70
2023-05-08T22:13:51.886Z,4.65
2023-05-08T22:18:48.913Z,4.68
2023-05-08T22:21:16.892Z,4.72
2023-05-08T22:23:45.859Z,4.50
2023-05-08T22:26:14.021Z,4.50
2023-05-08T22:28:42.963Z,4.45
2023-05-08T22:31:12.711Z,4.18
2023-05-08T22:33:42.032Z,4.28
2023-05-08T22:36:10.790Z,4.75
2023-05-08T22:38:40.758Z,4.93
2023-05-08T22:41:09.978Z,4.55
2023-05-08T22:43:38.106Z,4.60
2023-05-08T22:46:07.258Z,4.72
2023-05-08T22:48:37.594Z,4.67
2023-05-08T22:51:06.662Z,4.47
2023-05-08T22:53:34.754Z,4.68
2023-05-08T22:56:03.912Z,4.68
2023-05-08T22:58:31.966Z,4.72
2023-05-08T23:01:01.147Z,4.47
2023-05-08T23:03:29.674Z,4.23
2023-05-08T23:05:59.121Z,4.50
2023-05-08T23:10:56.400Z,4.55
2023-05-08T23:13:24.621Z,4.70
2023-05-08T23:15:53.237Z,4.60
2023-05-08T23:18:21.736Z,4.50
2023-05-08T23:20:49.707Z,4.80
2023-05-08T23:23:20.105Z,4.15
2023-05-08T23:25:48.024Z,4.05
2023-05-08T23:28:16.892Z,4.25
2023-05-08T23:30:44.826Z,4.80
2023-05-08T23:45:52.272Z,4.68
2023-05-08T23:48:20.097Z,4.35
2023-05-08T23:50:48.137Z,4.25
2023-05-08T23:53:17.135Z,4.50
2023-05-08T23:55:44.906Z,4.78
2023-05-08T23:58:13.182Z,4.10
